Terminal Aerodrome Forecast
Issued by NWS Bismarck, ND

Home | Current Version | Previous Version | Text Only | Print | Product List | Glossary Off
Versions: 1 2 3 4 5 6 7 8 9 10 11 12 13

000
FTUS43 KBIS 260521
TAFBIS
TAF
KBIS 260521Z 2606/2706 06006KT P6SM FEW110 BKN250
     FM261200 35007KT P6SM FEW250
     FM270000 02007KT P6SM SKC
     FM270200 05006KT P6SM SKC=

USA.gov is the U.S. government's official web portal to all federal, state and local government web resources and services.